sensor_id;sensor_type;location;lat;lon;timestamp;temperature;humidity
4081;DHT22;2055;50.074;8.436;2022-08-20T00:00:20;21.40;99.90
4081;DHT22;2055;50.074;8.436;2022-08-20T00:02:50;21.50;99.90
4081;DHT22;2055;50.074;8.436;2022-08-20T00:05:22;21.50;99.90
4081;DHT22;2055;50.074;8.436;2022-08-20T00:07:47;21.50;99.90
4081;DHT22;2055;50.074;8.436;2022-08-20T00:10:13;21.50;99.90
4081;DHT22;2055;50.074;8.436;2022-08-20T00:12:44;21.50;99.90
4081;DHT22;2055;50.074;8.436;2022-08-20T00:15:11;21.60;99.90
4081;DHT22;2055;50.074;8.436;2022-08-20T00:17:37;21.70;99.90
4081;DHT22;2055;50.074;8.436;2022-08-20T00:20:11;21.60;99.90
4081;DHT22;2055;50.074;8.436;2022-08-20T00:22:37;21.60;99.90
4081;DHT22;2055;50.074;8.436;2022-08-20T00:25:05;21.60;99.90
4081;DHT22;2055;50.074;8.436;2022-08-20T00:27:31;21.50;99.90
4081;DHT22;2055;50.074;8.436;2022-08-20T00:29:56;21.60;99.90
4081;DHT22;2055;50.074;8.436;2022-08-20T00:32:22;21.60;99.90
4081;DHT22;2055;50.074;8.436;2022-08-20T00:34:48;21.50;99.90
4081;DHT22;2055;50.074;8.436;2022-08-20T00:37:14;21.40;99.90
4081;DHT22;2055;50.074;8.436;2022-08-20T00:39:40;21.40;99.90
4081;DHT22;2055;50.074;8.436;2022-08-20T00:42:06;21.40;99.90
4081;DHT22;2055;50.074;8.436;2022-08-20T00:44:32;21.30;99.90
4081;DHT22;2055;50.074;8.436;2022-08-20T00:46:58;21.30;99.90
4081;DHT22;2055;50.074;8.436;2022-08-20T00:49:26;21.40;99.90
4081;DHT22;2055;50.074;8.436;2022-08-20T00:52:15;21.30;99.90
4081;DHT22;2055;50.074;8.436;2022-08-20T00:54:46;21.30;99.90
4081;DHT22;2055;50.074;8.436;2022-08-20T00:58:03;21.30;99.90
4081;DHT22;2055;50.074;8.436;2022-08-20T01:00:28;21.20;99.90
4081;DHT22;2055;50.074;8.436;2022-08-20T01:02:55;21.20;99.90
4081;DHT22;2055;50.074;8.436;2022-08-20T01:05:21;21.20;99.90
4081;DHT22;2055;50.074;8.436;2022-08-20T01:07:49;21.20;99.90
4081;DHT22;2055;50.074;8.436;2022-08-20T01:10:18;21.20;99.90
4081;DHT22;2055;50.074;8.436;2022-08-20T01:12:46;21.20;99.90
4081;DHT22;2055;50.074;8.436;2022-08-20T01:15:14;21.10;99.90
4081;DHT22;2055;50.074;8.436;2022-08-20T01:17:45;21.20;99.90
4081;DHT22;2055;50.074;8.436;2022-08-20T01:20:24;21.10;99.90
4081;DHT22;2055;50.074;8.436;2022-08-20T01:23:06;21.10;99.90
4081;DHT22;2055;50.074;8.436;2022-08-20T01:28:25;21.10;99.90
4081;DHT22;2055;50.074;8.436;2022-08-20T01:30:53;21.10;99.90
4081;DHT22;2055;50.074;8.436;2022-08-20T01:33:20;21.00;99.90
4081;DHT22;2055;50.074;8.436;2022-08-20T01:35:47;21.20;99.90
4081;DHT22;2055;50.074;8.436;2022-08-20T01:38:13;21.00;99.90
4081;DHT22;2055;50.074;8.436;2022-08-20T01:41:02;21.00;99.90
4081;DHT22;2055;50.074;8.436;2022-08-20T01:43:29;21.00;99.90
4081;DHT22;2055;50.074;8.436;2022-08-20T01:45:54;21.10;99.90
4081;DHT22;2055;50.074;8.436;2022-08-20T01:48:21;20.90;99.90
4081;DHT22;2055;50.074;8.436;2022-08-20T01:50:57;20.90;99.90
4081;DHT22;2055;50.074;8.436;2022-08-20T01:53:32;21.00;99.90
4081;DHT22;2055;50.074;8.436;2022-08-20T01:56:00;21.00;99.90
4081;DHT22;2055;50.074;8.436;2022-08-20T01:58:27;21.00;99.90
4081;DHT22;2055;50.074;8.436;2022-08-20T02:00:55;21.00;99.90
4081;DHT22;2055;50.074;8.436;2022-08-20T02:03:21;20.90;99.90
4081;DHT22;2055;50.074;8.436;2022-08-20T02:05:46;20.90;99.90
4081;DHT22;2055;50.074;8.436;2022-08-20T02:08:12;20.90;99.90
4081;DHT22;2055;50.074;8.436;2022-08-20T02:10:38;20.90;99.90
4081;DHT22;2055;50.074;8.436;2022-08-20T02:13:04;20.80;99.90
4081;DHT22;2055;50.074;8.436;2022-08-20T02:15:30;20.80;99.90
4081;DHT22;2055;50.074;8.436;2022-08-20T02:17:55;20.70;99.90
4081;DHT22;2055;50.074;8.436;2022-08-20T02:20:27;20.70;99.90
4081;DHT22;2055;50.074;8.436;2022-08-20T02:22:55;20.60;99.90
4081;DHT22;2055;50.074;8.436;2022-08-20T02:25:23;20.60;99.90
4081;DHT22;2055;50.074;8.436;2022-08-20T02:27:50;20.60;99.90
4081;DHT22;2055;50.074;8.436;2022-08-20T02:30:27;20.60;99.90
4081;DHT22;2055;50.074;8.436;2022-08-20T02:32:53;20.60;99.90
4081;DHT22;2055;50.074;8.436;2022-08-20T02:35:19;20.50;99.90
4081;DHT22;2055;50.074;8.436;2022-08-20T02:37:45;20.60;99.90
4081;DHT22;2055;50.074;8.436;2022-08-20T02:40:14;20.60;99.90
4081;DHT22;2055;50.074;8.436;2022-08-20T02:42:41;20.60;99.90
4081;DHT22;2055;50.074;8.436;2022-08-20T02:45:08;20.60;99.90
4081;DHT22;2055;50.074;8.436;2022-08-20T02:47:35;20.60;99.90
4081;DHT22;2055;50.074;8.436;2022-08-20T02:50:01;20.60;99.90
4081;DHT22;2055;50.074;8.436;2022-08-20T02:52:27;20.60;99.90
4081;DHT22;2055;50.074;8.436;2022-08-20T02:54:53;20.60;99.90
4081;DHT22;2055;50.074;8.436;2022-08-20T02:57:19;20.70;99.90
4081;DHT22;2055;50.074;8.436;2022-08-20T02:59:45;20.70;99.90
4081;DHT22;2055;50.074;8.436;2022-08-20T03:02:11;20.70;99.90
4081;DHT22;2055;50.074;8.436;2022-08-20T03:04:37;20.70;99.90
4081;DHT22;2055;50.074;8.436;2022-08-20T03:07:05;20.70;99.90
4081;DHT22;2055;50.074;8.436;2022-08-20T03:09:30;20.70;99.90
4081;DHT22;2055;50.074;8.436;2022-08-20T03:11:56;20.70;99.90
4081;DHT22;2055;50.074;8.436;2022-08-20T03:14:22;20.70;99.90
4081;DHT22;2055;50.074;8.436;2022-08-20T03:16:48;20.70;99.90
4081;DHT22;2055;50.074;8.436;2022-08-20T03:19:14;20.70;99.90
4081;DHT22;2055;50.074;8.436;2022-08-20T03:21:40;20.70;99.90
4081;DHT22;2055;50.074;8.436;2022-08-20T03:24:05;20.70;99.90
4081;DHT22;2055;50.074;8.436;2022-08-20T03:26:31;20.70;99.90
4081;DHT22;2055;50.074;8.436;2022-08-20T03:28:57;20.70;99.90
4081;DHT22;2055;50.074;8.436;2022-08-20T03:31:22;20.70;99.90
4081;DHT22;2055;50.074;8.436;2022-08-20T03:33:48;20.60;99.90
4081;DHT22;2055;50.074;8.436;2022-08-20T03:36:14;20.60;99.90
4081;DHT22;2055;50.074;8.436;2022-08-20T03:38:39;20.70;99.90
4081;DHT22;2055;50.074;8.436;2022-08-20T03:41:05;20.60;99.90
4081;DHT22;2055;50.074;8.436;2022-08-20T03:43:32;20.70;99.90
4081;DHT22;2055;50.074;8.436;2022-08-20T03:45:58;20.60;99.90
4081;DHT22;2055;50.074;8.436;2022-08-20T03:48:24;20.60;99.90
4081;DHT22;2055;50.074;8.436;2022-08-20T03:50:50;20.60;99.90
4081;DHT22;2055;50.074;8.436;2022-08-20T03:53:16;20.60;99.90
4081;DHT22;2055;50.074;8.436;2022-08-20T03:55:44;20.60;99.90
4081;DHT22;2055;50.074;8.436;2022-08-20T03:58:11;20.50;99.90
4081;DHT22;2055;50.074;8.436;2022-08-20T04:00:44;20.60;99.90
4081;DHT22;2055;50.074;8.436;2022-08-20T04:03:11;20.50;99.90
4081;DHT22;2055;50.074;8.436;2022-08-20T04:05:39;20.50;99.90
4081;DHT22;2055;50.074;8.436;2022-08-20T04:08:14;20.40;99.90
4081;DHT22;2055;50.074;8.436;2022-08-20T04:10:41;20.50;99.90
4081;DHT22;2055;50.074;8.436;2022-08-20T04:13:07;20.50;99.90
4081;DHT22;2055;50.074;8.436;2022-08-20T04:15:34;20.50;99.90
4081;DHT22;2055;50.074;8.436;2022-08-20T04:17:59;20.40;99.90
4081;DHT22;2055;50.074;8.436;2022-08-20T04:20:26;20.40;99.90
4081;DHT22;2055;50.074;8.436;2022-08-20T04:22:53;20.40;99.90
4081;DHT22;2055;50.074;8.436;2022-08-20T04:25:19;20.40;99.90
4081;DHT22;2055;50.074;8.436;2022-08-20T04:27:46;20.40;99.90
4081;DHT22;2055;50.074;8.436;2022-08-20T04:30:14;20.40;99.90
4081;DHT22;2055;50.074;8.436;2022-08-20T04:32:41;20.40;99.90
4081;DHT22;2055;50.074;8.436;2022-08-20T04:35:09;20.40;99.90
4081;DHT22;2055;50.074;8.436;2022-08-20T04:37:36;20.40;99.90
4081;DHT22;2055;50.074;8.436;2022-08-20T04:40:05;20.40;99.90
4081;DHT22;2055;50.074;8.436;2022-08-20T04:42:50;20.40;99.90
4081;DHT22;2055;50.074;8.436;2022-08-20T04:45:16;20.40;99.90
4081;DHT22;2055;50.074;8.436;2022-08-20T04:47:41;20.40;99.90
4081;DHT22;2055;50.074;8.436;2022-08-20T04:50:09;20.40;99.90
4081;DHT22;2055;50.074;8.436;2022-08-20T04:52:35;20.40;99.90
4081;DHT22;2055;50.074;8.436;2022-08-20T04:55:03;20.40;99.90
4081;DHT22;2055;50.074;8.436;2022-08-20T04:57:29;20.40;99.90
4081;DHT22;2055;50.074;8.436;2022-08-20T04:59:54;20.40;99.90
4081;DHT22;2055;50.074;8.436;2022-08-20T05:02:21;20.40;99.90
4081;DHT22;2055;50.074;8.436;2022-08-20T05:04:47;20.40;99.90
4081;DHT22;2055;50.074;8.436;2022-08-20T05:07:14;20.40;99.90
4081;DHT22;2055;50.074;8.436;2022-08-20T05:09:41;20.50;99.90
4081;DHT22;2055;50.074;8.436;2022-08-20T05:12:08;20.40;99.90
4081;DHT22;2055;50.074;8.436;2022-08-20T05:14:34;20.50;99.90
4081;DHT22;2055;50.074;8.436;2022-08-20T05:17:04;20.50;99.90
4081;DHT22;2055;50.074;8.436;2022-08-20T05:19:32;20.30;99.90
4081;DHT22;2055;50.074;8.436;2022-08-20T05:21:57;20.20;99.90
4081;DHT22;2055;50.074;8.436;2022-08-20T05:24:24;20.10;99.90
4081;DHT22;2055;50.074;8.436;2022-08-20T05:26:50;20.00;99.90
4081;DHT22;2055;50.074;8.436;2022-08-20T05:29:16;20.30;99.90
4081;DHT22;2055;50.074;8.436;2022-08-20T05:31:42;20.00;99.90
4081;DHT22;2055;50.074;8.436;2022-08-20T05:34:11;20.00;99.90
4081;DHT22;2055;50.074;8.436;2022-08-20T05:36:38;20.00;99.90
4081;DHT22;2055;50.074;8.436;2022-08-20T05:39:05;20.00;99.90
4081;DHT22;2055;50.074;8.436;2022-08-20T05:41:31;20.00;99.90
4081;DHT22;2055;50.074;8.436;2022-08-20T05:43:57;20.10;99.90
4081;DHT22;2055;50.074;8.436;2022-08-20T05:46:27;20.00;99.90
4081;DHT22;2055;50.074;8.436;2022-08-20T05:48:52;20.00;99.90
4081;DHT22;2055;50.074;8.436;2022-08-20T05:51:18;20.00;99.90
4081;DHT22;2055;50.074;8.436;2022-08-20T05:53:43;20.00;99.90
4081;DHT22;2055;50.074;8.436;2022-08-20T05:56:09;20.10;99.90
4081;DHT22;2055;50.074;8.436;2022-08-20T05:58:37;20.20;99.90
4081;DHT22;2055;50.074;8.436;2022-08-20T06:01:03;20.10;99.90
4081;DHT22;2055;50.074;8.436;2022-08-20T06:03:29;20.10;99.90
4081;DHT22;2055;50.074;8.436;2022-08-20T06:06:14;20.10;99.90
4081;DHT22;2055;50.074;8.436;2022-08-20T06:08:40;20.20;99.90
4081;DHT22;2055;50.074;8.436;2022-08-20T06:11:06;20.20;99.90
4081;DHT22;2055;50.074;8.436;2022-08-20T06:13:32;20.10;99.90
4081;DHT22;2055;50.074;8.436;2022-08-20T06:15:59;20.20;99.90
4081;DHT22;2055;50.074;8.436;2022-08-20T06:18:25;20.20;99.90
4081;DHT22;2055;50.074;8.436;2022-08-20T06:20:51;20.30;99.90
4081;DHT22;2055;50.074;8.436;2022-08-20T06:23:17;20.30;99.90
4081;DHT22;2055;50.074;8.436;2022-08-20T06:25:42;20.40;99.90
4081;DHT22;2055;50.074;8.436;2022-08-20T06:28:09;20.40;99.90
4081;DHT22;2055;50.074;8.436;2022-08-20T06:30:34;20.40;99.90
4081;DHT22;2055;50.074;8.436;2022-08-20T06:33:00;20.40;99.90
4081;DHT22;2055;50.074;8.436;2022-08-20T06:35:26;20.30;99.90
4081;DHT22;2055;50.074;8.436;2022-08-20T06:37:51;20.30;99.90
4081;DHT22;2055;50.074;8.436;2022-08-20T06:40:23;20.40;99.90
4081;DHT22;2055;50.074;8.436;2022-08-20T06:42:50;20.30;99.90
4081;DHT22;2055;50.074;8.436;2022-08-20T06:45:20;20.30;99.90
4081;DHT22;2055;50.074;8.436;2022-08-20T06:47:48;20.30;99.90
4081;DHT22;2055;50.074;8.436;2022-08-20T06:50:19;20.20;99.90
4081;DHT22;2055;50.074;8.436;2022-08-20T06:52:45;20.20;99.90
4081;DHT22;2055;50.074;8.436;2022-08-20T06:55:12;20.30;99.90
4081;DHT22;2055;50.074;8.436;2022-08-20T06:57:38;20.30;99.90
4081;DHT22;2055;50.074;8.436;2022-08-20T07:00:06;20.20;99.90
4081;DHT22;2055;50.074;8.436;2022-08-20T07:02:32;20.40;99.90
4081;DHT22;2055;50.074;8.436;2022-08-20T07:04:58;20.30;99.90
4081;DHT22;2055;50.074;8.436;2022-08-20T07:07:24;20.40;99.90
4081;DHT22;2055;50.074;8.436;2022-08-20T07:09:49;20.40;99.90
4081;DHT22;2055;50.074;8.436;2022-08-20T07:12:15;20.60;99.90
4081;DHT22;2055;50.074;8.436;2022-08-20T07:14:42;20.50;99.90
4081;DHT22;2055;50.074;8.436;2022-08-20T07:17:07;20.60;99.90
4081;DHT22;2055;50.074;8.436;2022-08-20T07:19:35;20.80;99.90
4081;DHT22;2055;50.074;8.436;2022-08-20T07:22:01;20.90;99.90
4081;DHT22;2055;50.074;8.436;2022-08-20T07:24:26;21.00;99.90
4081;DHT22;2055;50.074;8.436;2022-08-20T07:26:52;21.40;99.90
4081;DHT22;2055;50.074;8.436;2022-08-20T07:29:18;21.80;99.90
4081;DHT22;2055;50.074;8.436;2022-08-20T07:31:43;22.10;99.90
4081;DHT22;2055;50.074;8.436;2022-08-20T07:34:28;22.40;99.90
4081;DHT22;2055;50.074;8.436;2022-08-20T07:36:58;22.50;99.90
4081;DHT22;2055;50.074;8.436;2022-08-20T07:39:24;22.50;99.90
4081;DHT22;2055;50.074;8.436;2022-08-20T07:41:50;22.20;99.90
4081;DHT22;2055;50.074;8.436;2022-08-20T07:44:28;21.90;99.90
4081;DHT22;2055;50.074;8.436;2022-08-20T07:46:54;22.10;99.90
4081;DHT22;2055;50.074;8.436;2022-08-20T07:49:20;22.20;99.90
4081;DHT22;2055;50.074;8.436;2022-08-20T07:51:45;22.40;99.90
4081;DHT22;2055;50.074;8.436;2022-08-20T07:54:11;22.60;99.90
4081;DHT22;2055;50.074;8.436;2022-08-20T07:56:36;22.90;99.90
4081;DHT22;2055;50.074;8.436;2022-08-20T07:59:02;23.10;99.90
4081;DHT22;2055;50.074;8.436;2022-08-20T08:01:30;23.10;99.90
4081;DHT22;2055;50.074;8.436;2022-08-20T08:03:56;23.20;99.90
4081;DHT22;2055;50.074;8.436;2022-08-20T08:06:24;22.90;99.90
4081;DHT22;2055;50.074;8.436;2022-08-20T08:08:50;22.50;99.90
4081;DHT22;2055;50.074;8.436;2022-08-20T08:11:16;22.60;99.90
4081;DHT22;2055;50.074;8.436;2022-08-20T08:13:43;22.60;99.90
4081;DHT22;2055;50.074;8.436;2022-08-20T08:16:09;22.90;99.90
4081;DHT22;2055;50.074;8.436;2022-08-20T08:18:41;23.50;99.90
4081;DHT22;2055;50.074;8.436;2022-08-20T08:21:09;23.80;99.90
4081;DHT22;2055;50.074;8.436;2022-08-20T08:23:38;23.70;99.90
4081;DHT22;2055;50.074;8.436;2022-08-20T08:26:05;24.20;99.90
4081;DHT22;2055;50.074;8.436;2022-08-20T08:28:30;24.10;99.90
4081;DHT22;2055;50.074;8.436;2022-08-20T08:30:56;24.40;99.90
4081;DHT22;2055;50.074;8.436;2022-08-20T08:33:28;23.90;99.90
4081;DHT22;2055;50.074;8.436;2022-08-20T08:36:00;23.70;99.90
4081;DHT22;2055;50.074;8.436;2022-08-20T08:38:28;23.70;99.90
4081;DHT22;2055;50.074;8.436;2022-08-20T08:40:56;24.00;99.90
4081;DHT22;2055;50.074;8.436;2022-08-20T08:43:24;23.60;99.90
4081;DHT22;2055;50.074;8.436;2022-08-20T08:46:02;23.10;99.90
4081;DHT22;2055;50.074;8.436;2022-08-20T08:48:34;23.10;99.90
4081;DHT22;2055;50.074;8.436;2022-08-20T08:51:02;23.20;99.90
4081;DHT22;2055;50.074;8.436;2022-08-20T08:53:36;23.20;99.90
4081;DHT22;2055;50.074;8.436;2022-08-20T08:56:04;23.40;99.90
4081;DHT22;2055;50.074;8.436;2022-08-20T08:58:30;23.20;99.90
4081;DHT22;2055;50.074;8.436;2022-08-20T09:01:02;23.50;99.90
4081;DHT22;2055;50.074;8.436;2022-08-20T09:03:32;24.00;99.90
4081;DHT22;2055;50.074;8.436;2022-08-20T09:06:01;24.20;99.90
4081;DHT22;2055;50.074;8.436;2022-08-20T09:08:46;24.10;99.90
4081;DHT22;2055;50.074;8.436;2022-08-20T09:11:13;23.90;99.90
4081;DHT22;2055;50.074;8.436;2022-08-20T09:13:38;24.00;99.90
4081;DHT22;2055;50.074;8.436;2022-08-20T09:16:05;23.80;99.90
4081;DHT22;2055;50.074;8.436;2022-08-20T09:18:31;23.90;99.90
4081;DHT22;2055;50.074;8.436;2022-08-20T09:20:57;24.20;99.90
4081;DHT22;2055;50.074;8.436;2022-08-20T09:23:22;24.40;99.90
4081;DHT22;2055;50.074;8.436;2022-08-20T09:25:48;24.60;99.90
4081;DHT22;2055;50.074;8.436;2022-08-20T09:28:13;24.70;99.90
4081;DHT22;2055;50.074;8.436;2022-08-20T09:30:39;24.50;99.90
4081;DHT22;2055;50.074;8.436;2022-08-20T09:33:04;24.60;99.90
4081;DHT22;2055;50.074;8.436;2022-08-20T09:35:30;25.30;99.90
4081;DHT22;2055;50.074;8.436;2022-08-20T09:37:56;25.10;99.90
4081;DHT22;2055;50.074;8.436;2022-08-20T09:40:21;24.90;99.90
4081;DHT22;2055;50.074;8.436;2022-08-20T09:42:48;25.10;99.90
4081;DHT22;2055;50.074;8.436;2022-08-20T09:45:14;25.70;99.90
4081;DHT22;2055;50.074;8.436;2022-08-20T09:47:40;25.70;99.90
4081;DHT22;2055;50.074;8.436;2022-08-20T09:50:07;25.80;99.90
4081;DHT22;2055;50.074;8.436;2022-08-20T09:52:36;25.60;99.90
4081;DHT22;2055;50.074;8.436;2022-08-20T09:55:13;25.00;99.90
4081;DHT22;2055;50.074;8.436;2022-08-20T09:57:41;25.10;99.90
4081;DHT22;2055;50.074;8.436;2022-08-20T10:00:08;25.20;99.90
4081;DHT22;2055;50.074;8.436;2022-08-20T10:02:34;25.30;99.90
4081;DHT22;2055;50.074;8.436;2022-08-20T10:05:00;25.30;99.90
4081;DHT22;2055;50.074;8.436;2022-08-20T10:07:25;24.90;99.90
4081;DHT22;2055;50.074;8.436;2022-08-20T10:09:51;24.90;99.90
4081;DHT22;2055;50.074;8.436;2022-08-20T10:12:16;25.70;99.90
4081;DHT22;2055;50.074;8.436;2022-08-20T10:14:42;26.60;99.90
4081;DHT22;2055;50.074;8.436;2022-08-20T10:17:07;26.30;99.90
4081;DHT22;2055;50.074;8.436;2022-08-20T10:19:33;27.00;99.90
4081;DHT22;2055;50.074;8.436;2022-08-20T10:21:59;28.00;99.90
4081;DHT22;2055;50.074;8.436;2022-08-20T10:24:24;27.30;99.90
4081;DHT22;2055;50.074;8.436;2022-08-20T10:26:54;27.00;99.90
4081;DHT22;2055;50.074;8.436;2022-08-20T10:29:19;27.00;99.90
4081;DHT22;2055;50.074;8.436;2022-08-20T10:31:45;27.20;99.90
4081;DHT22;2055;50.074;8.436;2022-08-20T10:34:11;27.00;99.90
4081;DHT22;2055;50.074;8.436;2022-08-20T10:36:36;27.00;99.90
4081;DHT22;2055;50.074;8.436;2022-08-20T10:39:02;26.60;99.90
4081;DHT22;2055;50.074;8.436;2022-08-20T10:41:27;26.50;99.90
4081;DHT22;2055;50.074;8.436;2022-08-20T10:43:53;27.20;99.90
4081;DHT22;2055;50.074;8.436;2022-08-20T10:46:18;27.60;99.90
4081;DHT22;2055;50.074;8.436;2022-08-20T10:48:44;27.60;99.90
4081;DHT22;2055;50.074;8.436;2022-08-20T10:51:10;27.80;99.90
4081;DHT22;2055;50.074;8.436;2022-08-20T10:53:35;27.80;99.90
4081;DHT22;2055;50.074;8.436;2022-08-20T10:56:01;28.20;99.90
4081;DHT22;2055;50.074;8.436;2022-08-20T10:58:26;28.00;99.90
4081;DHT22;2055;50.074;8.436;2022-08-20T11:00:52;27.80;99.90
4081;DHT22;2055;50.074;8.436;2022-08-20T11:03:18;27.60;99.90
4081;DHT22;2055;50.074;8.436;2022-08-20T11:05:45;27.50;99.90
4081;DHT22;2055;50.074;8.436;2022-08-20T11:08:11;28.40;99.90
4081;DHT22;2055;50.074;8.436;2022-08-20T11:10:37;28.70;99.90
4081;DHT22;2055;50.074;8.436;2022-08-20T11:13:05;28.70;99.90
4081;DHT22;2055;50.074;8.436;2022-08-20T11:15:34;28.00;99.90
4081;DHT22;2055;50.074;8.436;2022-08-20T11:18:00;27.10;99.90
4081;DHT22;2055;50.074;8.436;2022-08-20T11:20:26;27.80;99.90
4081;DHT22;2055;50.074;8.436;2022-08-20T11:22:52;29.80;99.90
4081;DHT22;2055;50.074;8.436;2022-08-20T11:25:19;29.50;99.90
4081;DHT22;2055;50.074;8.436;2022-08-20T11:27:47;29.00;99.90
4081;DHT22;2055;50.074;8.436;2022-08-20T11:30:28;28.60;99.90
4081;DHT22;2055;50.074;8.436;2022-08-20T11:32:55;29.50;99.90
4081;DHT22;2055;50.074;8.436;2022-08-20T11:35:21;30.10;99.90
4081;DHT22;2055;50.074;8.436;2022-08-20T11:37:52;29.30;99.90
4081;DHT22;2055;50.074;8.436;2022-08-20T11:40:18;29.20;99.90
4081;DHT22;2055;50.074;8.436;2022-08-20T11:42:44;29.20;99.90
4081;DHT22;2055;50.074;8.436;2022-08-20T11:45:12;29.60;99.90
4081;DHT22;2055;50.074;8.436;2022-08-20T11:47:37;30.60;99.90
4081;DHT22;2055;50.074;8.436;2022-08-20T11:50:21;30.40;99.90
4081;DHT22;2055;50.074;8.436;2022-08-20T11:52:47;30.70;99.90
4081;DHT22;2055;50.074;8.436;2022-08-20T11:55:14;30.60;99.90
4081;DHT22;2055;50.074;8.436;2022-08-20T11:57:42;29.90;99.90
4081;DHT22;2055;50.074;8.436;2022-08-20T12:00:14;29.40;99.90
4081;DHT22;2055;50.074;8.436;2022-08-20T12:02:40;30.20;99.90
4081;DHT22;2055;50.074;8.436;2022-08-20T12:05:06;30.80;99.90
4081;DHT22;2055;50.074;8.436;2022-08-20T12:07:32;29.70;99.90
4081;DHT22;2055;50.074;8.436;2022-08-20T12:09:58;30.20;99.90
4081;DHT22;2055;50.074;8.436;2022-08-20T12:12:23;30.80;99.90
4081;DHT22;2055;50.074;8.436;2022-08-20T12:14:53;30.70;99.90
4081;DHT22;2055;50.074;8.436;2022-08-20T12:17:26;30.70;99.90
4081;DHT22;2055;50.074;8.436;2022-08-20T12:19:54;30.40;99.90
4081;DHT22;2055;50.074;8.436;2022-08-20T12:22:20;29.40;99.90
4081;DHT22;2055;50.074;8.436;2022-08-20T12:24:46;29.10;99.90
4081;DHT22;2055;50.074;8.436;2022-08-20T12:27:18;29.60;99.90
4081;DHT22;2055;50.074;8.436;2022-08-20T12:29:45;29.70;99.90
4081;DHT22;2055;50.074;8.436;2022-08-20T12:32:12;28.60;99.90
4081;DHT22;2055;50.074;8.436;2022-08-20T12:34:40;28.50;99.90
4081;DHT22;2055;50.074;8.436;2022-08-20T12:37:21;28.50;99.90
4081;DHT22;2055;50.074;8.436;2022-08-20T12:39:50;28.40;99.90
4081;DHT22;2055;50.074;8.436;2022-08-20T12:42:16;29.10;99.90
4081;DHT22;2055;50.074;8.436;2022-08-20T12:44:42;28.40;99.90
4081;DHT22;2055;50.074;8.436;2022-08-20T12:47:13;28.50;99.90
4081;DHT22;2055;50.074;8.436;2022-08-20T12:49:41;29.00;99.90
4081;DHT22;2055;50.074;8.436;2022-08-20T12:52:08;30.80;99.90
4081;DHT22;2055;50.074;8.436;2022-08-20T12:54:34;32.50;99.40
4081;DHT22;2055;50.074;8.436;2022-08-20T12:57:00;33.20;98.20
4081;DHT22;2055;50.074;8.436;2022-08-20T12:59:26;33.10;98.00
4081;DHT22;2055;50.074;8.436;2022-08-20T13:01:52;32.10;97.90
4081;DHT22;2055;50.074;8.436;2022-08-20T13:04:19;32.00;99.10
4081;DHT22;2055;50.074;8.436;2022-08-20T13:06:45;33.40;97.30
4081;DHT22;2055;50.074;8.436;2022-08-20T13:09:11;34.30;96.30
4081;DHT22;2055;50.074;8.436;2022-08-20T13:11:37;32.50;96.50
4081;DHT22;2055;50.074;8.436;2022-08-20T13:14:03;31.70;96.00
4081;DHT22;2055;50.074;8.436;2022-08-20T13:16:28;32.80;96.40
4081;DHT22;2055;50.074;8.436;2022-08-20T13:18:54;32.50;94.90
4081;DHT22;2055;50.074;8.436;2022-08-20T13:21:20;31.60;94.60
4081;DHT22;2055;50.074;8.436;2022-08-20T13:23:45;30.50;95.40
4081;DHT22;2055;50.074;8.436;2022-08-20T13:26:11;30.20;96.30
4081;DHT22;2055;50.074;8.436;2022-08-20T13:28:36;30.70;96.10
4081;DHT22;2055;50.074;8.436;2022-08-20T13:31:02;32.00;95.20
4081;DHT22;2055;50.074;8.436;2022-08-20T13:33:28;30.30;94.50
4081;DHT22;2055;50.074;8.436;2022-08-20T13:35:55;29.40;95.70
4081;DHT22;2055;50.074;8.436;2022-08-20T13:38:21;28.20;95.90
4081;DHT22;2055;50.074;8.436;2022-08-20T13:40:46;28.00;96.40
4081;DHT22;2055;50.074;8.436;2022-08-20T13:43:12;27.60;96.30
4081;DHT22;2055;50.074;8.436;2022-08-20T13:45:38;27.70;96.10
4081;DHT22;2055;50.074;8.436;2022-08-20T13:48:05;27.50;95.80
4081;DHT22;2055;50.074;8.436;2022-08-20T13:50:31;28.10;95.00
4081;DHT22;2055;50.074;8.436;2022-08-20T13:52:57;30.20;94.60
4081;DHT22;2055;50.074;8.436;2022-08-20T13:55:25;31.80;93.00
4081;DHT22;2055;50.074;8.436;2022-08-20T13:57:51;31.90;91.40
4081;DHT22;2055;50.074;8.436;2022-08-20T14:00:21;30.70;91.10
4081;DHT22;2055;50.074;8.436;2022-08-20T14:02:47;31.90;91.10
4081;DHT22;2055;50.074;8.436;2022-08-20T14:05:12;32.10;89.60
4081;DHT22;2055;50.074;8.436;2022-08-20T14:07:40;32.30;88.00
4081;DHT22;2055;50.074;8.436;2022-08-20T14:10:10;33.30;87.20
4081;DHT22;2055;50.074;8.436;2022-08-20T14:12:36;33.00;87.30
4081;DHT22;2055;50.074;8.436;2022-08-20T14:15:03;32.20;85.70
4081;DHT22;2055;50.074;8.436;2022-08-20T14:17:37;31.90;85.10
4081;DHT22;2055;50.074;8.436;2022-08-20T14:20:06;31.60;84.10
4081;DHT22;2055;50.074;8.436;2022-08-20T14:22:33;31.90;82.40
4081;DHT22;2055;50.074;8.436;2022-08-20T14:24:58;32.10;82.00
4081;DHT22;2055;50.074;8.436;2022-08-20T14:27:28;33.70;79.20
4081;DHT22;2055;50.074;8.436;2022-08-20T14:29:54;33.30;79.00
4081;DHT22;2055;50.074;8.436;2022-08-20T14:32:20;33.80;79.00
4081;DHT22;2055;50.074;8.436;2022-08-20T14:34:45;34.80;77.30
4081;DHT22;2055;50.074;8.436;2022-08-20T14:37:20;33.50;79.30
4081;DHT22;2055;50.074;8.436;2022-08-20T14:39:48;32.80;87.50
4081;DHT22;2055;50.074;8.436;2022-08-20T14:42:15;32.90;88.60
4081;DHT22;2055;50.074;8.436;2022-08-20T14:44:41;33.60;89.00
4081;DHT22;2055;50.074;8.436;2022-08-20T14:47:25;33.50;89.00
4081;DHT22;2055;50.074;8.436;2022-08-20T14:49:53;32.70;89.20
4081;DHT22;2055;50.074;8.436;2022-08-20T14:52:20;31.80;89.30
4081;DHT22;2055;50.074;8.436;2022-08-20T14:54:46;30.50;90.20
4081;DHT22;2055;50.074;8.436;2022-08-20T14:57:13;29.80;91.30
4081;DHT22;2055;50.074;8.436;2022-08-20T14:59:40;29.30;92.30
4081;DHT22;2055;50.074;8.436;2022-08-20T15:02:10;30.40;92.00
4081;DHT22;2055;50.074;8.436;2022-08-20T15:04:37;31.50;91.10
4081;DHT22;2055;50.074;8.436;2022-08-20T15:07:04;31.00;90.60
4081;DHT22;2055;50.074;8.436;2022-08-20T15:09:34;31.30;91.00
4081;DHT22;2055;50.074;8.436;2022-08-20T15:12:00;31.60;90.30
4081;DHT22;2055;50.074;8.436;2022-08-20T15:14:26;29.40;90.70
4081;DHT22;2055;50.074;8.436;2022-08-20T15:16:53;30.30;91.90
4081;DHT22;2055;50.074;8.436;2022-08-20T15:19:19;31.40;90.40
4081;DHT22;2055;50.074;8.436;2022-08-20T15:21:45;31.00;90.20
4081;DHT22;2055;50.074;8.436;2022-08-20T15:24:12;30.70;90.40
4081;DHT22;2055;50.074;8.436;2022-08-20T15:26:38;30.30;90.30
4081;DHT22;2055;50.074;8.436;2022-08-20T15:29:03;30.80;90.30
4081;DHT22;2055;50.074;8.436;2022-08-20T15:31:29;30.20;90.20
4081;DHT22;2055;50.074;8.436;2022-08-20T15:33:54;31.00;90.20
4081;DHT22;2055;50.074;8.436;2022-08-20T15:36:20;31.30;89.60
4081;DHT22;2055;50.074;8.436;2022-08-20T15:38:46;30.80;88.10
4081;DHT22;2055;50.074;8.436;2022-08-20T15:41:12;31.00;88.60
4081;DHT22;2055;50.074;8.436;2022-08-20T15:43:37;31.40;87.90
4081;DHT22;2055;50.074;8.436;2022-08-20T15:46:04;31.20;87.20
4081;DHT22;2055;50.074;8.436;2022-08-20T15:48:50;30.50;87.90
4081;DHT22;2055;50.074;8.436;2022-08-20T15:51:31;31.30;87.10
4081;DHT22;2055;50.074;8.436;2022-08-20T15:54:07;32.00;86.80
4081;DHT22;2055;50.074;8.436;2022-08-20T16:10:37;30.00;86.90
4081;DHT22;2055;50.074;8.436;2022-08-20T16:13:17;30.50;87.00
4081;DHT22;2055;50.074;8.436;2022-08-20T16:15:45;30.10;87.40
4081;DHT22;2055;50.074;8.436;2022-08-20T16:18:25;30.30;86.80
4081;DHT22;2055;50.074;8.436;2022-08-20T16:20:53;29.70;87.90